Time;durP1;ratioP1;P1;durP2;ratioP2;P2;SDS_P1;SDS_P2;PMS_P1;PMS_P2;Temp;Humidity;BMP_temperature;BMP_pressure;BME280_temperature;BME280_humidity;BME280_pressure;Samples;Min_cycle;Max_cycle;Signal;HPM_P1;HPM_P2
2022/02/12 00:00:09;;;;;;;8.20;5.30;;;-0.40;99.90;;;;;;5090732;28;20040;-72
2022/02/12 00:02:43;;;;;;;8.52;5.53;;;-0.40;99.90;;;;;;5090108;28;20565;-72
2022/02/12 00:05:17;;;;;;;6.88;5.18;;;-0.40;99.90;;;;;;5089526;28;20050;-72
2022/02/12 00:07:51;;;;;;;8.15;4.68;;;-0.40;99.90;;;;;;5090702;28;20040;-72
2022/02/12 00:10:27;;;;;;;10.52;5.53;;;-0.40;99.90;;;;;;5105209;28;20044;-72
2022/02/12 00:12:59;;;;;;;8.82;5.82;;;-0.50;99.90;;;;;;5088796;28;20570;-72
2022/02/12 00:15:27;;;;;;;7.93;5.15;;;-0.50;99.90;;;;;;5090648;28;20119;-72
2022/02/12 00:17:59;;;;;;;7.82;5.43;;;-0.50;99.90;;;;;;5090542;28;20495;-72
2022/02/12 00:20:31;;;;;;;7.68;5.05;;;-0.60;99.90;;;;;;5090550;28;20035;-72
2022/02/12 00:23:04;;;;;;;9.93;5.72;;;-0.60;99.90;;;;;;5094101;28;20048;-72
2022/02/12 00:25:36;;;;;;;7.10;5.03;;;-0.70;99.90;;;;;;5094430;28;20119;-72
2022/02/12 00:28:07;;;;;;;7.30;4.97;;;-0.70;99.90;;;;;;5094574;28;20032;-72
2022/02/12 00:30:39;;;;;;;7.18;4.97;;;-0.70;99.90;;;;;;5103256;28;20051;-72
2022/02/12 00:33:12;;;;;;;6.25;3.22;;;-0.70;99.90;;;;;;5073447;28;20094;-72
2022/02/12 00:35:45;;;;;;;9.23;5.57;;;-0.80;99.90;;;;;;5094990;28;20479;-71
2022/02/12 00:38:19;;;;;;;8.40;4.93;;;-0.80;99.90;;;;;;5083808;28;20048;-72
2022/02/12 00:40:50;;;;;;;8.60;4.53;;;-0.80;99.90;;;;;;5072989;28;20436;-72
2022/02/12 00:43:17;;;;;;;8.13;4.03;;;-0.80;99.90;;;;;;5072757;28;20044;-72
2022/02/12 00:45:52;;;;;;;6.03;3.75;;;-0.70;99.90;;;;;;5074680;28;20040;-72
2022/02/12 00:48:24;;;;;;;7.35;3.78;;;-0.80;99.90;;;;;;5075262;28;20046;-72
2022/02/12 00:50:59;;;;;;;7.35;4.00;;;-0.80;99.90;;;;;;5092809;28;20068;-72
2022/02/12 00:53:31;;;;;;;6.95;3.80;;;-0.90;99.90;;;;;;5075981;28;20050;-72
2022/02/12 00:56:06;;;;;;;7.70;3.65;;;-0.90;99.90;;;;;;5077661;28;20086;-73
2022/02/12 00:58:38;;;;;;;7.13;3.40;;;-0.90;99.90;;;;;;5077428;28;20192;-73
2022/02/12 01:01:09;;;;;;;4.95;3.53;;;-0.90;99.90;;;;;;5077172;28;20046;-72
2022/02/12 01:03:41;;;;;;;4.28;3.50;;;-0.90;99.90;;;;;;5093889;28;20561;-72
2022/02/12 01:06:08;;;;;;;6.00;3.45;;;-1.00;99.90;;;;;;5076399;28;20046;-72
2022/02/12 01:08:35;;;;;;;4.78;3.45;;;-1.10;99.90;;;;;;5075859;28;20044;-72
2022/02/12 01:11:03;;;;;;;8.88;3.72;;;-1.10;99.90;;;;;;5094257;28;20064;-72
2022/02/12 01:13:37;;;;;;;6.93;3.45;;;-1.10;99.90;;;;;;5059628;28;20054;-72
2022/02/12 01:16:09;;;;;;;6.65;3.42;;;-1.20;99.90;;;;;;5076245;28;20372;-72
2022/02/12 01:18:44;;;;;;;7.80;3.80;;;-1.20;99.90;;;;;;5094040;28;20546;-72
2022/02/12 01:21:11;;;;;;;6.43;3.50;;;-1.30;99.90;;;;;;5093918;28;20123;-72
2022/02/12 01:23:38;;;;;;;6.65;3.78;;;-1.30;99.90;;;;;;5093545;28;20052;-73
2022/02/12 01:26:06;;;;;;;9.52;4.35;;;-1.30;99.90;;;;;;5075804;28;20614;-73
2022/02/12 01:28:38;;;;;;;8.77;4.63;;;-1.20;99.90;;;;;;5093862;28;20040;-72
2022/02/12 01:31:17;;;;;;;7.85;4.07;;;-1.20;99.90;;;;;;5075495;28;20414;-72
2022/02/12 01:33:48;;;;;;;5.80;3.92;;;-1.20;99.90;;;;;;5075007;28;20039;-73
2022/02/12 01:36:20;;;;;;;9.38;4.50;;;-1.20;99.90;;;;;;5093722;28;20377;-72
2022/02/12 01:38:52;;;;;;;8.02;5.05;;;-1.20;99.90;;;;;;5075575;28;20081;-72
2022/02/12 01:41:23;;;;;;;6.15;4.50;;;-1.10;99.90;;;;;;5075437;28;20142;-72
2022/02/12 01:43:57;;;;;;;9.60;4.63;;;-1.10;99.90;;;;;;5093278;28;20131;-72
2022/02/12 01:46:24;;;;;;;8.38;5.47;;;-1.10;99.90;;;;;;5058730;28;20184;-73
2022/02/12 01:48:56;;;;;;;7.65;5.10;;;-1.10;99.90;;;;;;5093250;28;20119;-72
2022/02/12 01:51:28;;;;;;;11.35;5.55;;;-1.10;99.90;;;;;;5076108;28;20063;-73
2022/02/12 01:53:55;;;;;;;7.40;5.18;;;-1.00;99.90;;;;;;5075163;28;20469;-72
2022/02/12 01:56:22;;;;;;;9.07;5.03;;;-1.00;99.90;;;;;;5092038;28;20063;-72
2022/02/12 01:58:54;;;;;;;10.40;4.97;;;-1.10;99.90;;;;;;5093287;28;20044;-72
2022/02/12 02:01:26;;;;;;;9.55;4.72;;;-1.10;99.90;;;;;;5058622;28;20054;-72
2022/02/12 02:03:59;;;;;;;11.23;5.57;;;-1.20;99.90;;;;;;5075030;28;20044;-72
2022/02/12 02:06:37;;;;;;;7.80;4.50;;;-1.30;99.90;;;;;;5074435;28;20048;-72
2022/02/12 02:09:17;;;;;;;9.93;4.65;;;-1.40;99.90;;;;;;5074343;28;20032;-72
2022/02/12 02:11:49;;;;;;;8.23;4.50;;;-1.40;99.90;;;;;;5092463;28;20047;-72
2022/02/12 02:14:32;;;;;;;6.80;4.97;;;-1.50;99.90;;;;;;5091897;28;20130;-72
2022/02/12 02:17:00;;;;;;;10.95;5.15;;;-1.50;99.90;;;;;;5074443;28;20114;-72
2022/02/12 02:19:32;;;;;;;10.43;5.53;;;-1.40;99.90;;;;;;5074174;28;20499;-72
2022/02/12 02:22:10;;;;;;;11.85;5.82;;;-1.40;99.90;;;;;;5092366;28;20050;-72
2022/02/12 02:24:43;;;;;;;8.73;4.65;;;-1.40;99.90;;;;;;5092016;28;20047;-72
2022/02/12 02:27:18;;;;;;;10.60;4.90;;;-1.40;99.90;;;;;;5073875;28;20058;-72
2022/02/12 02:29:45;;;;;;;12.55;5.25;;;-1.30;99.90;;;;;;5074231;28;20055;-72
2022/02/12 02:32:17;;;;;;;7.63;4.20;;;-1.30;99.90;;;;;;5073673;28;20044;-72
2022/02/12 02:34:55;;;;;;;7.68;4.22;;;-1.30;99.90;;;;;;5092051;28;20046;-72
2022/02/12 02:37:27;;;;;;;11.40;4.90;;;-1.30;99.90;;;;;;5091921;28;20046;-72
2022/02/12 02:39:54;;;;;;;9.57;5.18;;;-1.40;99.90;;;;;;5073796;28;20142;-72
2022/02/12 02:42:21;;;;;;;8.50;4.80;;;-1.40;99.90;;;;;;5073654;28;20135;-72
2022/02/12 02:44:53;;;;;;;7.90;4.70;;;-1.40;99.90;;;;;;5091266;28;20043;-72
2022/02/12 02:47:40;;;;;;;9.25;4.50;;;-1.40;99.90;;;;;;5091826;28;20041;-72
2022/02/12 02:56:07;;;;;;;9.45;4.85;;;-1.30;99.90;;;;;;5091370;28;20048;-72
2022/02/12 02:58:48;;;;;;;14.07;5.95;;;-1.30;99.90;;;;;;5057526;28;20054;-72
2022/02/12 03:01:23;;;;;;;7.13;4.07;;;-1.40;99.90;;;;;;5074215;28;20067;-73
2022/02/12 03:03:55;;;;;;;;;;;-1.40;99.90;;;;;;5091495;28;20418;-73
2022/02/12 03:06:26;;;;;;;10.43;5.47;;;-1.40;99.90;;;;;;5090029;28;19926;-72
2022/02/12 03:08:58;;;;;;;9.95;5.40;;;-1.50;99.90;;;;;;5090222;28;20042;-72
2022/02/12 03:11:27;;;;;;;6.00;5.00;;;-1.50;99.90;;;;;;5073171;28;20139;-72
2022/02/12 03:14:00;;;;;;;7.47;5.05;;;-1.50;99.90;;;;;;5073712;28;20067;-72
2022/02/12 03:16:32;;;;;;;8.50;5.83;;;-1.50;99.90;;;;;;5073118;28;20040;-72
2022/02/12 03:19:04;;;;;;;12.48;6.00;;;-1.60;99.90;;;;;;5091360;28;20518;-71
2022/02/12 03:21:36;;;;;;;10.65;6.38;;;-1.60;99.90;;;;;;5091057;28;20130;-72
2022/02/12 03:24:09;;;;;;;9.25;6.40;;;-1.60;99.90;;;;;;5072461;28;20075;-72
2022/02/12 03:26:40;;;;;;;10.02;5.50;;;-1.60;99.90;;;;;;5091068;28;20048;-72
2022/02/12 03:29:07;;;;;;;7.65;5.55;;;-1.60;99.90;;;;;;5090985;28;20410;-73
2022/02/12 03:31:34;;;;;;;7.72;5.30;;;-1.60;99.90;;;;;;5056118;28;20074;-71
2022/02/12 03:34:05;;;;;;;11.93;6.03;;;-1.70;99.90;;;;;;5072376;28;20501;-72
2022/02/12 03:36:37;;;;;;;16.23;7.47;;;-1.70;99.90;;;;;;5072904;28;20642;-72
2022/02/12 03:39:04;;;;;;;12.80;6.43;;;-1.70;99.90;;;;;;5090950;28;20067;-72
2022/02/12 03:41:36;;;;;;;9.10;6.05;;;-1.80;99.90;;;;;;5090885;28;20138;-72
2022/02/12 03:44:02;;;;;;;10.13;6.45;;;-1.80;99.90;;;;;;5090322;28;20064;-73
2022/02/12 03:46:35;;;;;;;10.32;7.63;;;-1.80;99.90;;;;;;5090775;28;20040;-72
2022/02/12 03:49:07;;;;;;;10.38;6.72;;;-1.80;99.90;;;;;;5073600;28;20483;-72
2022/02/12 03:51:38;;;;;;;9.77;7.15;;;-1.90;99.90;;;;;;5090752;28;20401;-71
2022/02/12 03:54:10;;;;;;;11.25;6.57;;;-1.90;99.90;;;;;;5090248;28;20058;-72
2022/02/12 03:56:42;;;;;;;10.52;5.93;;;-2.00;99.90;;;;;;5089730;28;20040;-72
2022/02/12 03:59:15;;;;;;;11.60;6.70;;;-2.00;99.90;;;;;;5056569;28;20044;-72
2022/02/12 04:01:47;;;;;;;13.88;7.50;;;-2.00;99.90;;;;;;5090372;28;20078;-72
2022/02/12 04:04:22;;;;;;;11.93;6.95;;;-2.10;99.90;;;;;;5072000;28;20130;-71
2022/02/12 04:06:56;;;;;;;8.43;6.15;;;-2.10;99.90;;;;;;5073777;28;20048;-72
2022/02/12 04:09:29;;;;;;;9.35;6.22;;;-2.10;99.90;;;;;;5056378;28;20040;-72
2022/02/12 04:12:01;;;;;;;10.55;6.03;;;-2.20;99.90;;;;;;5056432;28;20058;-72
2022/02/12 04:14:33;;;;;;;11.57;6.25;;;-2.20;99.90;;;;;;5090049;28;20047;-72
2022/02/12 04:17:04;;;;;;;9.45;5.43;;;-2.20;99.90;;;;;;5072439;28;20036;-72
2022/02/12 04:19:39;;;;;;;10.27;5.25;;;-2.20;99.90;;;;;;5073898;28;20050;-72
2022/02/12 04:22:06;;;;;;;11.65;6.55;;;-2.20;99.90;;;;;;5073006;28;20064;-72
2022/02/12 04:24:40;;;;;;;9.07;5.75;;;-2.20;99.90;;;;;;5090398;28;20062;-72
2022/02/12 04:27:06;;;;;;;8.13;4.70;;;-2.20;99.90;;;;;;5072810;28;20134;-72
2022/02/12 04:29:38;;;;;;;7.68;4.82;;;-2.20;99.90;;;;;;5072773;28;20051;-72
2022/02/12 04:32:05;;;;;;;9.93;5.22;;;-2.20;99.90;;;;;;5090740;28;20136;-72
2022/02/12 04:34:37;;;;;;;11.05;5.80;;;-2.30;99.90;;;;;;5056469;28;20042;-71
2022/02/12 04:37:04;;;;;;;7.82;5.07;;;-2.30;99.90;;;;;;5072910;28;20111;-71
2022/02/12 04:39:39;;;;;;;10.98;5.80;;;-2.30;99.90;;;;;;5072175;28;20450;-72
2022/02/12 04:42:11;;;;;;;8.27;5.43;;;-2.30;99.90;;;;;;5090609;28;20059;-72
2022/02/12 04:44:49;;;;;;;9.85;4.72;;;-2.30;99.90;;;;;;5073247;28;20050;-72
2022/02/12 04:47:17;;;;;;;7.45;4.82;;;-2.30;99.90;;;;;;5090753;28;20123;-72
2022/02/12 04:49:51;;;;;;;9.98;5.43;;;-2.40;99.90;;;;;;5072648;28;20127;-72
2022/02/12 04:52:23;;;;;;;10.20;5.88;;;-2.30;99.90;;;;;;5090392;28;20043;-72
2022/02/12 04:54:55;;;;;;;8.68;4.70;;;-2.40;99.90;;;;;;5090744;28;20068;-72
2022/02/12 04:57:27;;;;;;;7.15;5.10;;;-2.50;99.90;;;;;;5090501;28;20380;-72
2022/02/12 04:59:54;;;;;;;8.98;5.03;;;-2.50;99.90;;;;;;5072623;28;20050;-71
2022/02/12 05:02:24;;;;;;;9.13;5.68;;;-2.50;99.90;;;;;;5090344;28;20140;-72
2022/02/12 05:04:50;;;;;;;9.73;5.30;;;-2.50;99.90;;;;;;5090613;28;20119;-72
2022/02/12 05:07:24;;;;;;;13.05;6.30;;;-2.60;99.90;;;;;;5074982;28;20047;-72
2022/02/12 05:09:56;;;;;;;8.90;5.82;;;-2.60;99.90;;;;;;5094188;28;20744;-72
2022/02/12 05:12:28;;;;;;;10.07;5.57;;;-2.60;99.90;;;;;;5075324;28;20418;-72
2022/02/12 05:14:55;;;;;;;11.63;6.38;;;-2.60;99.90;;;;;;5094146;28;20114;-72
2022/02/12 05:17:28;;;;;;;14.38;8.32;;;-2.70;99.90;;;;;;5094153;28;20040;-72
2022/02/12 05:20:00;;;;;;;15.70;9.15;;;-2.70;99.90;;;;;;5094177;28;20050;-72
2022/02/12 05:22:31;;;;;;;13.63;8.70;;;-2.70;99.90;;;;;;5075301;28;20549;-72
2022/02/12 05:25:05;;;;;;;15.00;9.52;;;-2.70;99.90;;;;;;5093828;28;20414;-72
2022/02/12 05:27:37;;;;;;;17.35;10.25;;;-2.70;99.90;;;;;;5093958;28;20044;-72
2022/02/12 05:30:11;;;;;;;18.45;9.77;;;-2.70;99.90;;;;;;5076714;28;20040;-72
2022/02/12 05:32:38;;;;;;;16.27;8.07;;;-2.70;99.90;;;;;;5093349;28;20036;-72
2022/02/12 05:35:10;;;;;;;19.73;10.15;;;-2.70;99.90;;;;;;5075879;28;20405;-72
2022/02/12 05:37:41;;;;;;;12.80;7.00;;;-2.70;99.90;;;;;;5089505;28;20502;-72
2022/02/12 05:40:09;;;;;;;11.13;6.53;;;-2.70;99.90;;;;;;5068637;28;20579;-72
2022/02/12 05:42:40;;;;;;;14.60;7.65;;;-2.70;99.90;;;;;;5038473;28;20051;-71
2022/02/12 05:45:15;;;;;;;14.48;8.77;;;-2.70;99.90;;;;;;5059723;28;20075;-72
2022/02/12 05:47:47;;;;;;;19.08;8.85;;;-2.80;99.90;;;;;;5071618;28;20033;-72
2022/02/12 05:50:14;;;;;;;17.27;8.88;;;-2.80;99.90;;;;;;5056539;28;20052;-72
2022/02/12 05:52:42;;;;;;;16.67;8.60;;;-2.80;99.90;;;;;;5072563;28;20043;-72
2022/02/12 05:55:14;;;;;;;16.40;9.57;;;-2.80;99.90;;;;;;5073115;28;20047;-71
2022/02/12 05:57:45;;;;;;;13.45;7.85;;;-2.90;99.90;;;;;;5073518;28;20040;-72
2022/02/12 06:00:17;;;;;;;16.63;8.25;;;-2.90;99.90;;;;;;5070443;28;20043;-72
2022/02/12 06:02:49;;;;;;;12.02;7.53;;;-2.90;99.90;;;;;;5053483;28;20040;-72
2022/02/12 06:05:21;;;;;;;12.10;7.65;;;-2.80;99.90;;;;;;5070785;28;20573;-72
2022/02/12 06:07:53;;;;;;;11.55;7.30;;;-2.80;99.90;;;;;;5071007;28;20757;-73
2022/02/12 06:10:25;;;;;;;16.65;8.35;;;-2.70;99.90;;;;;;5054342;28;20135;-72
2022/02/12 06:12:57;;;;;;;11.43;6.75;;;-2.80;99.90;;;;;;5071714;28;20041;-72
2022/02/12 06:15:27;;;;;;;10.45;6.95;;;-2.80;99.90;;;;;;5072475;28;20111;-72
2022/02/12 06:18:00;;;;;;;15.43;7.57;;;-2.70;99.90;;;;;;5072297;28;20037;-72
2022/02/12 06:20:27;;;;;;;12.32;6.28;;;-2.70;99.90;;;;;;5071530;28;20128;-72
2022/02/12 06:22:59;;;;;;;11.77;6.80;;;-2.70;99.90;;;;;;5055140;28;20047;-72
2022/02/12 06:25:32;;;;;;;11.57;6.63;;;-2.60;99.90;;;;;;5053976;28;20589;-72
2022/02/12 06:28:04;;;;;;;10.35;6.40;;;-2.70;99.90;;;;;;5071763;28;20067;-72
2022/02/12 06:30:36;;;;;;;11.60;5.50;;;-2.70;99.90;;;;;;5042936;28;20049;-72
2022/02/12 06:33:09;;;;;;;13.27;6.93;;;-2.80;99.90;;;;;;5066245;28;20040;-72
2022/02/12 06:35:41;;;;;;;16.45;9.73;;;-2.80;99.90;;;;;;5040852;28;20041;-72
2022/02/12 06:38:12;;;;;;;17.13;10.02;;;-2.80;99.90;;;;;;5050741;28;20033;-71
2022/02/12 06:40:46;;;;;;;21.17;11.02;;;-2.90;99.90;;;;;;5052105;28;20045;-72
2022/02/12 06:43:21;;;;;;;14.80;9.65;;;-2.90;99.90;;;;;;5033655;28;20072;-72
2022/02/12 06:45:53;;;;;;;24.10;9.38;;;-3.00;99.90;;;;;;5035122;28;20519;-72
2022/02/12 06:48:25;;;;;;;18.35;6.90;;;-3.00;99.90;;;;;;5034945;28;20047;-72
2022/02/12 06:50:52;;;;;;;13.90;6.95;;;-3.10;99.90;;;;;;5050445;28;20510;-72
2022/02/12 06:53:19;;;;;;;12.85;7.78;;;-3.10;99.90;;;;;;5050294;28;20484;-72
2022/02/12 06:55:45;;;;;;;10.18;6.80;;;-3.20;99.90;;;;;;5059967;28;20129;-72
2022/02/12 06:58:17;;;;;;;12.95;7.45;;;-3.20;99.90;;;;;;5043913;28;20499;-76
2022/02/12 07:00:44;;;;;;;13.65;8.02;;;-3.20;99.90;;;;;;5051693;28;20135;-71
2022/02/12 07:03:15;;;;;;;20.88;11.27;;;-3.10;99.90;;;;;;5051202;28;20045;-71
2022/02/12 07:05:48;;;;;;;23.73;12.32;;;-3.10;99.90;;;;;;5033864;28;20044;-75
2022/02/12 07:08:15;;;;;;;22.80;11.38;;;-3.10;99.90;;;;;;5017298;28;20280;-71
2022/02/12 07:10:47;;;;;;;22.75;10.75;;;-3.00;99.90;;;;;;5034591;28;20045;-72
2022/02/12 07:13:19;;;;;;;23.35;9.85;;;-3.00;99.90;;;;;;5051053;28;20047;-71
2022/02/12 07:15:50;;;;;;;20.15;10.13;;;-3.00;99.90;;;;;;5056460;28;20041;-71
2022/02/12 07:18:18;;;;;;;17.95;9.05;;;-3.00;99.90;;;;;;5065217;28;20110;-73
2022/02/12 07:20:52;;;;;;;13.95;8.18;;;-3.00;99.90;;;;;;5066201;28;20036;-72
2022/02/12 07:23:24;;;;;;;23.60;9.55;;;-3.00;99.90;;;;;;5051438;28;20505;-72
2022/02/12 07:25:51;;;;;;;17.75;9.60;;;-2.90;99.90;;;;;;5063542;28;20044;-71
2022/02/12 07:28:24;;;;;;;17.25;10.30;;;-2.80;99.90;;;;;;5058061;28;20132;-72
2022/02/12 07:30:56;;;;;;;18.48;10.00;;;-2.80;99.90;;;;;;5044511;28;20043;-72
2022/02/12 07:33:26;;;;;;;32.50;15.27;;;-2.70;99.90;;;;;;5071746;28;20036;-72
2022/02/12 07:35:53;;;;;;;45.25;22.02;;;-2.70;99.90;;;;;;5068224;28;20036;-72
2022/02/12 07:38:26;;;;;;;65.88;29.85;;;-2.60;99.90;;;;;;5063674;28;20487;-72
2022/02/12 07:40:57;;;;;;;43.67;20.35;;;-2.50;99.90;;;;;;5068305;28;20045;-72
2022/02/12 07:43:25;;;;;;;38.55;17.80;;;-2.40;99.90;;;;;;5070198;28;20036;-72
2022/02/12 07:46:00;;;;;;;33.45;15.60;;;-2.30;99.90;;;;;;5065428;28;20060;-71
2022/02/12 07:48:27;;;;;;;25.90;14.70;;;-2.20;99.90;;;;;;5056771;28;20040;-71
2022/02/12 07:50:55;;;;;;;23.50;14.45;;;-2.10;99.90;;;;;;5068741;28;20055;-72
2022/02/12 07:53:22;;;;;;;21.40;12.93;;;-2.10;99.90;;;;;;5061104;28;20132;-72
2022/02/12 07:55:49;;;;;;;22.00;12.90;;;-2.00;99.90;;;;;;5052587;28;20067;-72
2022/02/12 07:58:16;;;;;;;22.45;12.57;;;-2.00;99.90;;;;;;5052093;28;20060;-72
2022/02/12 08:00:48;;;;;;;20.00;12.02;;;-1.90;99.90;;;;;;5052896;28;20037;-71
2022/02/12 08:03:19;;;;;;;18.77;10.55;;;-1.80;99.90;;;;;;5068274;28;20124;-71
2022/02/12 08:05:52;;;;;;;17.90;11.10;;;-1.80;99.90;;;;;;5059673;28;20119;-72
2022/02/12 08:08:24;;;;;;;15.93;9.85;;;-1.70;99.90;;;;;;5053430;28;20041;-72
2022/02/12 08:13:51;;;;;;;18.58;9.70;;;-1.60;99.90;;;;;;5065660;28;20050;-71
2022/02/12 08:16:23;;;;;;;22.50;10.73;;;-1.60;99.90;;;;;;5074866;28;20127;-71
2022/02/12 08:18:55;;;;;;;20.10;10.50;;;-1.50;99.90;;;;;;5067442;28;20037;-71
2022/02/12 08:21:23;;;;;;;14.93;9.82;;;-1.40;99.90;;;;;;5069921;28;20135;-72
2022/02/12 08:23:54;;;;;;;19.67;11.20;;;-1.30;99.90;;;;;;5073136;28;20032;-71
2022/02/12 08:26:29;;;;;;;19.27;11.27;;;-1.30;99.90;;;;;;5067695;28;20050;-71
2022/02/12 08:29:01;;;;;;;16.23;11.82;;;-1.10;99.90;;;;;;5051904;28;20044;-71
2022/02/12 08:31:33;;;;;;;14.30;8.70;;;-0.70;99.90;;;;;;5058239;28;20414;-73
2022/02/12 08:34:04;;;;;;;13.27;7.85;;;-0.50;99.90;;;;;;5088178;28;20044;-72
2022/02/12 08:36:36;;;;;;;15.35;8.60;;;-0.50;99.90;;;;;;5088008;28;20040;-72
2022/02/12 08:39:08;;;;;;;15.35;8.43;;;-0.40;99.90;;;;;;5060419;28;20044;-72
2022/02/12 08:41:43;;;;;;;13.80;7.80;;;-0.40;99.90;;;;;;5092757;28;20071;-72
2022/02/12 08:44:17;;;;;;;13.82;8.38;;;-0.30;99.90;;;;;;5094110;28;20040;-72
2022/02/12 08:46:45;;;;;;;15.95;7.85;;;-0.30;99.90;;;;;;5092059;28;20550;-72
2022/02/12 08:49:14;;;;;;;12.98;7.78;;;-0.20;99.90;;;;;;5073502;28;20387;-72
2022/02/12 08:51:41;;;;;;;11.98;7.60;;;-0.10;99.90;;;;;;5093767;28;20119;-71
2022/02/12 08:54:11;;;;;;;17.17;8.35;;;0.00;99.90;;;;;;5074892;28;20036;-72
2022/02/12 08:56:44;;;;;;;12.10;7.10;;;0.00;99.90;;;;;;5094397;28;20135;-71
2022/02/12 08:59:16;;;;;;;12.98;6.78;;;0.10;99.90;;;;;;5101886;28;20044;-72
2022/02/12 09:01:47;;;;;;;10.85;6.85;;;0.20;99.90;;;;;;5073915;28;20036;-71
2022/02/12 09:04:19;;;;;;;9.63;6.05;;;0.30;99.90;;;;;;5092000;28;20040;-71
2022/02/12 09:06:51;;;;;;;11.98;6.93;;;0.40;99.90;;;;;;5092535;28;20040;-72
2022/02/12 09:09:23;;;;;;;11.25;6.47;;;0.50;99.90;;;;;;5096768;28;20040;-71
2022/02/12 09:11:57;;;;;;;9.73;6.05;;;0.60;99.90;;;;;;5084880;28;20418;-72
2022/02/12 09:14:29;;;;;;;14.00;6.32;;;0.70;99.90;;;;;;5077525;28;20041;-71
2022/02/12 09:17:01;;;;;;;13.30;6.88;;;0.90;99.90;;;;;;5093241;28;20405;-71
2022/02/12 09:19:34;;;;;;;10.45;5.45;;;1.00;99.90;;;;;;5094759;28;20058;-71
2022/02/12 09:22:06;;;;;;;12.23;5.78;;;1.10;99.90;;;;;;5089362;28;20133;-71
2022/02/12 09:24:39;;;;;;;11.90;5.75;;;1.20;99.90;;;;;;5085538;28;20044;-71
2022/02/12 09:27:06;;;;;;;10.65;5.40;;;1.20;99.90;;;;;;5064444;28;20466;-71
2022/02/12 09:29:37;;;;;;;8.25;5.60;;;1.30;99.90;;;;;;5096447;28;20039;-71
2022/02/12 09:32:10;;;;;;;8.98;5.18;;;1.40;99.90;;;;;;5079142;28;20067;-72
2022/02/12 09:34:42;;;;;;;11.02;5.78;;;1.50;99.90;;;;;;5088754;28;20050;-72
2022/02/12 09:37:08;;;;;;;10.40;5.85;;;1.60;99.90;;;;;;5076004;28;20040;-71
2022/02/12 09:39:41;;;;;;;10.32;5.18;;;1.70;99.90;;;;;;5086875;28;20109;-71
2022/02/12 09:42:10;;;;;;;7.07;5.00;;;1.80;99.90;;;;;;5086179;28;20044;-71
2022/02/12 09:44:43;;;;;;;7.82;6.05;;;1.80;99.90;;;;;;5092698;28;20043;-72
2022/02/12 09:47:36;;;;;;;9.48;4.68;;;1.90;99.90;;;;;;5084713;28;20123;-72
2022/02/12 09:50:08;;;;;;;10.05;5.45;;;2.00;99.90;;;;;;5058266;28;20040;-71
2022/02/12 09:52:46;;;;;;;7.13;4.28;;;2.10;99.90;;;;;;5068092;28;20047;-72
2022/02/12 09:55:19;;;;;;;8.88;4.95;;;2.20;99.90;;;;;;5055005;28;20051;-71
2022/02/12 09:57:50;;;;;;;7.38;4.18;;;2.30;99.90;;;;;;5073045;28;20110;-71
2022/02/12 10:00:22;;;;;;;10.55;5.22;;;2.40;99.90;;;;;;5072992;28;20090;-72
2022/02/12 10:02:48;;;;;;;7.60;3.95;;;2.40;99.90;;;;;;5054254;28;20484;-72
2022/02/12 10:05:28;;;;;;;7.53;4.93;;;2.50;99.90;;;;;;5072899;28;20047;-72
2022/02/12 10:08:03;;;;;;;9.45;4.90;;;2.50;99.90;;;;;;5069207;28;20413;-72
2022/02/12 10:10:32;;;;;;;7.03;3.90;;;2.60;99.90;;;;;;5081418;28;20134;-72
2022/02/12 10:13:31;;;;;;;7.05;3.85;;;2.60;99.90;;;;;;5072124;28;20051;-71
2022/02/12 10:16:01;;;;;;;6.63;3.83;;;2.70;99.90;;;;;;5076025;28;20037;-72
2022/02/12 10:18:39;;;;;;;6.13;4.13;;;2.80;99.90;;;;;;5084390;28;20368;-72
2022/02/12 10:21:10;;;;;;;6.85;4.05;;;2.90;99.90;;;;;;5076370;28;20032;-72
2022/02/12 10:23:44;;;;;;;6.63;3.80;;;2.90;99.90;;;;;;5090538;28;20044;-71
2022/02/12 10:26:19;;;;;;;7.90;4.63;;;3.00;99.90;;;;;;5091264;28;20131;-72
2022/02/12 10:28:56;;;;;;;6.30;4.00;;;3.10;99.90;;;;;;5053454;28;20059;-76
2022/02/12 10:31:29;;;;;;;4.90;3.20;;;3.10;99.90;;;;;;5038349;28;20283;-72
2022/02/12 10:34:06;;;;;;;6.20;3.80;;;3.20;99.90;;;;;;5063736;28;20048;-71
2022/02/12 10:36:35;;;;;;;;;;;3.20;99.90;;;;;;5075194;28;20121;-72
2022/02/12 10:39:08;;;;;;;5.45;3.80;;;3.20;99.90;;;;;;5074922;28;19993;-72
2022/02/12 10:41:40;;;;;;;5.57;3.70;;;3.30;99.90;;;;;;5090685;28;20399;-72
2022/02/12 10:44:12;;;;;;;5.18;3.47;;;3.40;99.90;;;;;;5090274;28;20066;-72
2022/02/12 10:46:45;;;;;;;9.85;5.00;;;3.40;99.90;;;;;;5092418;28;20414;-72
2022/02/12 10:49:12;;;;;;;12.45;4.30;;;3.50;99.90;;;;;;5074161;28;20090;-72
2022/02/12 10:51:44;;;;;;;9.90;4.10;;;3.50;99.90;;;;;;5092337;28;20051;-72
2022/02/12 10:54:19;;;;;;;8.65;3.80;;;3.60;99.90;;;;;;5090390;28;20511;-71
2022/02/12 10:56:49;;;;;;;9.10;4.90;;;3.60;99.90;;;;;;5090409;28;20043;-72
2022/02/12 10:59:24;;;;;;;6.38;3.95;;;3.70;99.90;;;;;;5056240;28;20728;-72
2022/02/12 11:01:56;;;;;;;20.23;8.68;;;3.70;99.90;;;;;;5087650;28;20040;-72
2022/02/12 11:04:30;;;;;;;18.33;6.95;;;3.80;99.90;;;;;;5087522;28;20097;-72
2022/02/12 11:07:05;;;;;;;20.75;7.95;;;3.80;99.90;;;;;;5092709;28;20452;-71
2022/02/12 11:09:32;;;;;;;9.75;4.57;;;3.90;99.90;;;;;;5083230;28;20462;-72
2022/02/12 11:12:08;;;;;;;11.35;6.50;;;4.00;99.90;;;;;;5071950;28;20040;-72
2022/02/12 11:14:36;;;;;;;6.60;4.55;;;4.00;99.90;;;;;;5072380;28;20042;-71
2022/02/12 11:17:26;;;;;;;6.10;3.25;;;4.00;99.90;;;;;;5054751;28;20495;-72
2022/02/12 11:19:59;;;;;;;4.70;3.47;;;4.10;99.90;;;;;;5087343;28;20044;-72
2022/02/12 11:22:26;;;;;;;5.90;4.00;;;4.10;99.90;;;;;;5088645;28;20093;-72
2022/02/12 11:24:54;;;;;;;5.93;3.53;;;4.10;99.90;;;;;;5087226;28;20043;-72
2022/02/12 11:27:29;;;;;;;11.32;4.28;;;4.10;99.90;;;;;;5088563;28;20139;-71
2022/02/12 11:30:30;;;;;;;6.15;3.50;;;4.20;99.90;;;;;;5051680;28;20163;-71
2022/02/12 11:33:18;;;;;;;5.97;3.80;;;4.20;99.90;;;;;;5066104;28;20044;-72
2022/02/12 11:36:12;;;;;;;5.35;3.75;;;4.30;99.90;;;;;;5091768;28;20048;-73
2022/02/12 11:38:46;;;;;;;5.35;3.35;;;4.40;99.90;;;;;;5091591;28;20043;-71
2022/02/12 11:41:26;;;;;;;4.00;3.47;;;4.40;99.90;;;;;;5091156;28;20047;-71
2022/02/12 11:43:58;;;;;;;4.07;3.28;;;4.50;99.90;;;;;;5069855;28;20043;-71
2022/02/12 11:46:51;;;;;;;7.18;3.80;;;4.50;99.90;;;;;;5056357;28;21027;-71
2022/02/12 11:49:23;;;;;;;11.52;4.28;;;4.60;99.90;;;;;;5086451;28;20892;-71
2022/02/12 11:51:58;;;;;;;6.32;3.85;;;4.60;99.90;;;;;;5065244;28;20524;-72
2022/02/12 11:54:44;;;;;;;5.65;3.90;;;4.60;99.90;;;;;;5088237;28;20034;-71
2022/02/12 11:57:17;;;;;;;;;;;4.70;99.90;;;;;;5086170;28;20040;-71
2022/02/12 11:59:45;;;;;;;6.95;4.28;;;4.70;99.90;;;;;;5078211;28;22830;-71
2022/02/12 12:02:45;;;;;;;5.90;4.13;;;4.70;99.90;;;;;;5086565;28;20060;-72
2022/02/12 12:05:20;;;;;;;7.75;5.00;;;4.80;99.90;;;;;;5079936;28;20577;-72
2022/02/12 12:08:06;;;;;;;6.80;4.10;;;4.80;99.90;;;;;;5055254;28;20415;-72
2022/02/12 12:10:40;;;;;;;9.57;4.13;;;4.90;99.90;;;;;;5084311;28;20040;-72
2022/02/12 12:13:25;;;;;;;;;;;5.00;99.90;;;;;;5069011;28;20054;-72
2022/02/12 12:16:11;;;;;;;7.93;4.40;;;5.00;99.90;;;;;;5084309;28;20470;-72
2022/02/12 12:18:44;;;;;;;6.25;4.00;;;5.10;99.90;;;;;;5086019;28;20052;-71
2022/02/12 12:21:17;;;;;;;10.02;5.35;;;5.20;99.90;;;;;;5094595;28;20070;-72
2022/02/12 12:23:58;;;;;;;9.17;5.03;;;5.30;99.90;;;;;;5079940;28;20044;-72
2022/02/12 12:26:39;;;;;;;6.40;4.03;;;5.40;99.90;;;;;;5082578;28;20513;-71
2022/02/12 12:32:17;;;;;;;22.58;9.27;;;5.50;99.90;;;;;;5094744;28;20495;-72
2022/02/12 12:35:03;;;;;;;17.02;6.82;;;5.60;99.90;;;;;;5094151;28;20038;-72
2022/02/12 12:37:56;;;;;;;13.65;6.60;;;5.60;99.90;;;;;;5076575;28;20040;-71
2022/02/12 12:40:31;;;;;;;8.65;4.60;;;5.70;99.90;;;;;;5074082;28;20038;-72
2022/02/12 12:43:08;;;;;;;8.55;3.90;;;5.70;99.90;;;;;;5064078;28;21800;-72
2022/02/12 12:45:42;;;;;;;6.53;4.03;;;5.70;99.90;;;;;;5093106;28;20070;-72
2022/02/12 12:48:14;;;;;;;6.53;4.07;;;5.70;99.90;;;;;;5082504;28;20041;-71
2022/02/12 12:50:47;;;;;;;12.15;4.85;;;5.80;99.90;;;;;;5076909;28;20125;-72
2022/02/12 12:53:22;;;;;;;7.85;4.47;;;5.90;99.90;;;;;;5068402;28;20064;-72
2022/02/12 12:55:55;;;;;;;6.75;3.75;;;5.90;99.90;;;;;;5090264;28;20406;-71
2022/02/12 12:58:23;;;;;;;6.70;3.63;;;5.90;99.90;;;;;;5077772;28;20040;-71
2022/02/12 13:01:10;;;;;;;5.97;3.40;;;6.00;99.90;;;;;;5094318;28;20109;-71
2022/02/12 13:03:46;;;;;;;5.90;3.58;;;6.00;99.90;;;;;;5094444;28;20032;-71
2022/02/12 13:06:18;;;;;;;5.28;3.70;;;6.00;99.90;;;;;;5093463;28;20131;-71
2022/02/12 13:08:50;;;;;;;4.78;3.45;;;6.10;99.90;;;;;;5094438;28;20040;-72
2022/02/12 13:11:30;;;;;;;5.15;3.33;;;6.20;99.90;;;;;;5092910;28;20148;-71
2022/02/12 13:14:05;;;;;;;16.75;3.60;;;6.40;99.90;;;;;;5081285;28;20066;-70
2022/02/12 13:16:37;;;;;;;7.78;3.72;;;6.40;99.90;;;;;;5088244;28;20028;-70
2022/02/12 13:19:13;;;;;;;8.27;5.85;;;6.40;99.90;;;;;;5072213;28;20089;-71
2022/02/12 13:21:47;;;;;;;6.00;4.80;;;6.50;99.90;;;;;;5077122;28;20066;-71
2022/02/12 13:24:15;;;;;;;6.07;3.88;;;6.50;99.90;;;;;;5079960;28;20591;-72